sensor_id;sensor_type;location;lat;lon;timestamp;P1;durP1;ratioP1;P2;durP2;ratioP2
50012;SDS011;35901;48.694;9.476;2022-09-03T00:02:20;2.07;;;1.93;;
50012;SDS011;35901;48.694;9.476;2022-09-03T00:05:12;2.30;;;2.10;;
50012;SDS011;35901;48.694;9.476;2022-09-03T00:10:56;1.97;;;1.87;;
50012;SDS011;35901;48.694;9.476;2022-09-03T00:13:31;2.47;;;1.90;;
50012;SDS011;35901;48.694;9.476;2022-09-03T00:16:02;2.23;;;2.13;;
50012;SDS011;35901;48.694;9.476;2022-09-03T00:18:34;2.57;;;1.90;;
50012;SDS011;35901;48.694;9.476;2022-09-03T00:21:10;2.23;;;1.90;;
50012;SDS011;35901;48.694;9.476;2022-09-03T00:23:40;3.53;;;2.33;;
50012;SDS011;35901;48.694;9.476;2022-09-03T00:28:50;2.30;;;2.10;;
50012;SDS011;35901;48.694;9.476;2022-09-03T00:31:40;2.20;;;2.00;;
50012;SDS011;35901;48.694;9.476;2022-09-03T00:37:03;1.93;;;1.77;;
50012;SDS011;35901;48.694;9.476;2022-09-03T00:39:32;3.30;;;1.60;;
50012;SDS011;35901;48.694;9.476;2022-09-03T00:44:47;2.27;;;1.73;;
50012;SDS011;35901;48.694;9.476;2022-09-03T00:47:37;1.90;;;1.80;;
50012;SDS011;35901;48.694;9.476;2022-09-03T00:55:33;2.00;;;1.80;;
50012;SDS011;35901;48.694;9.476;2022-09-03T01:01:15;2.03;;;1.50;;
50012;SDS011;35901;48.694;9.476;2022-09-03T01:09:33;1.60;;;1.50;;
50012;SDS011;35901;48.694;9.476;2022-09-03T01:18:34;1.47;;;1.47;;
50012;SDS011;35901;48.694;9.476;2022-09-03T01:21:31;1.70;;;1.60;;
50012;SDS011;35901;48.694;9.476;2022-09-03T01:27:08;1.93;;;1.83;;
50012;SDS011;35901;48.694;9.476;2022-09-03T01:35:16;1.80;;;1.70;;
50012;SDS011;35901;48.694;9.476;2022-09-03T01:38:04;2.20;;;1.80;;
50012;SDS011;35901;48.694;9.476;2022-09-03T01:43:36;2.60;;;1.50;;
50012;SDS011;35901;48.694;9.476;2022-09-03T01:46:22;2.40;;;1.40;;
50012;SDS011;35901;48.694;9.476;2022-09-03T01:48:59;1.83;;;1.73;;
50012;SDS011;35901;48.694;9.476;2022-09-03T01:51:29;1.80;;;1.70;;
50012;SDS011;35901;48.694;9.476;2022-09-03T01:54:05;1.93;;;1.63;;
50012;SDS011;35901;48.694;9.476;2022-09-03T01:57:00;1.80;;;1.70;;
50012;SDS011;35901;48.694;9.476;2022-09-03T02:00:04;1.70;;;1.60;;
50012;SDS011;35901;48.694;9.476;2022-09-03T02:02:38;1.63;;;1.53;;
50012;SDS011;35901;48.694;9.476;2022-09-03T02:05:26;2.10;;;1.50;;
50012;SDS011;35901;48.694;9.476;2022-09-03T02:07:55;1.50;;;1.40;;
50012;SDS011;35901;48.694;9.476;2022-09-03T02:10:48;1.70;;;1.60;;
50012;SDS011;35901;48.694;9.476;2022-09-03T02:13:19;1.70;;;1.60;;
50012;SDS011;35901;48.694;9.476;2022-09-03T02:15:51;1.63;;;1.60;;
50012;SDS011;35901;48.694;9.476;2022-09-03T02:18:21;1.77;;;1.67;;
50012;SDS011;35901;48.694;9.476;2022-09-03T02:20:54;1.73;;;1.60;;
50012;SDS011;35901;48.694;9.476;2022-09-03T02:23:22;1.87;;;1.70;;
50012;SDS011;35901;48.694;9.476;2022-09-03T02:25:50;1.80;;;1.70;;
50012;SDS011;35901;48.694;9.476;2022-09-03T02:28:19;1.97;;;1.87;;
50012;SDS011;35901;48.694;9.476;2022-09-03T02:30:46;1.80;;;1.70;;
50012;SDS011;35901;48.694;9.476;2022-09-03T02:33:12;1.87;;;1.77;;
50012;SDS011;35901;48.694;9.476;2022-09-03T02:35:39;1.97;;;1.60;;
50012;SDS011;35901;48.694;9.476;2022-09-03T02:38:12;1.90;;;1.80;;
50012;SDS011;35901;48.694;9.476;2022-09-03T02:40:40;2.07;;;1.97;;
50012;SDS011;35901;48.694;9.476;2022-09-03T02:43:07;2.30;;;1.93;;
50012;SDS011;35901;48.694;9.476;2022-09-03T02:45:40;2.07;;;1.97;;
50012;SDS011;35901;48.694;9.476;2022-09-03T02:48:12;1.90;;;1.80;;
50012;SDS011;35901;48.694;9.476;2022-09-03T02:50:43;2.43;;;1.80;;
50012;SDS011;35901;48.694;9.476;2022-09-03T02:53:08;2.20;;;2.00;;
50012;SDS011;35901;48.694;9.476;2022-09-03T02:55:34;2.20;;;2.00;;
50012;SDS011;35901;48.694;9.476;2022-09-03T02:58:00;1.90;;;1.80;;
50012;SDS011;35901;48.694;9.476;2022-09-03T03:00:26;3.03;;;2.00;;
50012;SDS011;35901;48.694;9.476;2022-09-03T03:02:54;1.60;;;1.50;;
50012;SDS011;35901;48.694;9.476;2022-09-03T03:08:21;1.90;;;1.80;;
50012;SDS011;35901;48.694;9.476;2022-09-03T03:10:50;1.80;;;1.70;;
50012;SDS011;35901;48.694;9.476;2022-09-03T03:13:17;2.17;;;2.00;;
50012;SDS011;35901;48.694;9.476;2022-09-03T03:15:43;1.60;;;1.50;;
50012;SDS011;35901;48.694;9.476;2022-09-03T03:18:10;1.90;;;1.80;;
50012;SDS011;35901;48.694;9.476;2022-09-03T03:20:40;1.60;;;1.50;;
50012;SDS011;35901;48.694;9.476;2022-09-03T03:23:07;1.97;;;1.87;;
50012;SDS011;35901;48.694;9.476;2022-09-03T03:25:34;1.87;;;1.73;;
50012;SDS011;35901;48.694;9.476;2022-09-03T03:28:04;3.80;;;2.17;;
50012;SDS011;35901;48.694;9.476;2022-09-03T03:30:31;2.33;;;1.93;;
50012;SDS011;35901;48.694;9.476;2022-09-03T03:32:58;2.17;;;2.00;;
50012;SDS011;35901;48.694;9.476;2022-09-03T03:35:24;2.20;;;2.00;;
50012;SDS011;35901;48.694;9.476;2022-09-03T03:37:49;1.83;;;1.73;;
50012;SDS011;35901;48.694;9.476;2022-09-03T03:40:15;2.20;;;2.00;;
50012;SDS011;35901;48.694;9.476;2022-09-03T03:42:41;2.10;;;1.97;;
50012;SDS011;35901;48.694;9.476;2022-09-03T03:45:07;2.10;;;2.00;;
50012;SDS011;35901;48.694;9.476;2022-09-03T03:47:34;1.90;;;1.80;;
50012;SDS011;35901;48.694;9.476;2022-09-03T03:50:00;1.97;;;1.87;;
50012;SDS011;35901;48.694;9.476;2022-09-03T03:52:26;2.30;;;1.80;;
50012;SDS011;35901;48.694;9.476;2022-09-03T03:54:52;2.30;;;2.10;;
50012;SDS011;35901;48.694;9.476;2022-09-03T03:57:19;2.40;;;1.97;;
50012;SDS011;35901;48.694;9.476;2022-09-03T03:59:45;2.13;;;1.90;;
50012;SDS011;35901;48.694;9.476;2022-09-03T04:02:12;3.47;;;1.90;;
50012;SDS011;35901;48.694;9.476;2022-09-03T04:04:38;2.00;;;1.90;;
50012;SDS011;35901;48.694;9.476;2022-09-03T04:07:04;2.17;;;2.07;;
50012;SDS011;35901;48.694;9.476;2022-09-03T04:09:29;2.10;;;2.00;;
50012;SDS011;35901;48.694;9.476;2022-09-03T04:11:55;2.00;;;1.90;;
50012;SDS011;35901;48.694;9.476;2022-09-03T04:14:24;2.10;;;2.00;;
50012;SDS011;35901;48.694;9.476;2022-09-03T04:16:51;2.10;;;2.00;;
50012;SDS011;35901;48.694;9.476;2022-09-03T04:19:17;3.17;;;2.10;;
50012;SDS011;35901;48.694;9.476;2022-09-03T04:21:43;2.33;;;2.23;;
50012;SDS011;35901;48.694;9.476;2022-09-03T04:24:09;2.67;;;2.30;;
50012;SDS011;35901;48.694;9.476;2022-09-03T04:26:35;2.40;;;2.20;;
50012;SDS011;35901;48.694;9.476;2022-09-03T04:29:02;3.03;;;2.63;;
50012;SDS011;35901;48.694;9.476;2022-09-03T04:31:33;1.97;;;1.87;;
50012;SDS011;35901;48.694;9.476;2022-09-03T04:34:00;2.40;;;2.20;;
50012;SDS011;35901;48.694;9.476;2022-09-03T04:36:26;2.40;;;2.30;;
50012;SDS011;35901;48.694;9.476;2022-09-03T04:38:54;2.83;;;2.57;;
50012;SDS011;35901;48.694;9.476;2022-09-03T04:41:23;2.63;;;2.43;;
50012;SDS011;35901;48.694;9.476;2022-09-03T04:43:51;2.50;;;2.30;;
50012;SDS011;35901;48.694;9.476;2022-09-03T04:46:19;2.50;;;2.30;;
50012;SDS011;35901;48.694;9.476;2022-09-03T04:48:49;2.70;;;2.30;;
50012;SDS011;35901;48.694;9.476;2022-09-03T04:51:18;2.40;;;2.20;;
50012;SDS011;35901;48.694;9.476;2022-09-03T04:53:46;2.57;;;2.23;;
50012;SDS011;35901;48.694;9.476;2022-09-03T04:56:14;2.33;;;2.23;;
50012;SDS011;35901;48.694;9.476;2022-09-03T04:58:42;2.53;;;2.30;;
50012;SDS011;35901;48.694;9.476;2022-09-03T05:01:09;2.13;;;2.03;;
50012;SDS011;35901;48.694;9.476;2022-09-03T05:03:36;2.40;;;2.20;;
50012;SDS011;35901;48.694;9.476;2022-09-03T05:06:02;2.90;;;2.40;;
50012;SDS011;35901;48.694;9.476;2022-09-03T05:08:30;3.23;;;2.53;;
50012;SDS011;35901;48.694;9.476;2022-09-03T05:10:57;2.33;;;2.10;;
50012;SDS011;35901;48.694;9.476;2022-09-03T05:13:24;2.63;;;2.43;;
50012;SDS011;35901;48.694;9.476;2022-09-03T05:15:50;2.60;;;2.40;;
50012;SDS011;35901;48.694;9.476;2022-09-03T05:18:16;2.93;;;2.73;;
50012;SDS011;35901;48.694;9.476;2022-09-03T05:20:42;2.93;;;2.27;;
50012;SDS011;35901;48.694;9.476;2022-09-03T05:23:08;2.30;;;2.10;;
50012;SDS011;35901;48.694;9.476;2022-09-03T05:25:34;2.20;;;2.10;;
50012;SDS011;35901;48.694;9.476;2022-09-03T05:28:02;2.53;;;2.17;;
50012;SDS011;35901;48.694;9.476;2022-09-03T05:30:29;2.73;;;2.10;;
50012;SDS011;35901;48.694;9.476;2022-09-03T05:32:55;2.13;;;2.00;;
50012;SDS011;35901;48.694;9.476;2022-09-03T05:35:21;2.73;;;2.10;;
50012;SDS011;35901;48.694;9.476;2022-09-03T05:37:46;2.47;;;2.27;;
50012;SDS011;35901;48.694;9.476;2022-09-03T05:40:12;2.00;;;1.90;;
50012;SDS011;35901;48.694;9.476;2022-09-03T05:42:38;2.47;;;2.10;;
50012;SDS011;35901;48.694;9.476;2022-09-03T05:45:07;2.40;;;2.17;;
50012;SDS011;35901;48.694;9.476;2022-09-03T05:47:38;2.67;;;2.37;;
50012;SDS011;35901;48.694;9.476;2022-09-03T05:50:07;2.50;;;2.30;;
50012;SDS011;35901;48.694;9.476;2022-09-03T05:52:34;2.53;;;2.33;;
50012;SDS011;35901;48.694;9.476;2022-09-03T05:55:01;2.27;;;2.17;;
50012;SDS011;35901;48.694;9.476;2022-09-03T05:57:28;3.23;;;2.30;;
50012;SDS011;35901;48.694;9.476;2022-09-03T05:59:54;2.50;;;2.30;;
50012;SDS011;35901;48.694;9.476;2022-09-03T06:02:21;2.30;;;2.10;;
50012;SDS011;35901;48.694;9.476;2022-09-03T06:04:47;4.07;;;2.40;;
50012;SDS011;35901;48.694;9.476;2022-09-03T06:07:13;2.73;;;2.40;;
50012;SDS011;35901;48.694;9.476;2022-09-03T06:09:39;2.53;;;2.20;;
50012;SDS011;35901;48.694;9.476;2022-09-03T06:12:05;2.30;;;2.10;;
50012;SDS011;35901;48.694;9.476;2022-09-03T06:14:32;2.27;;;2.07;;
50012;SDS011;35901;48.694;9.476;2022-09-03T06:16:57;3.87;;;2.20;;
50012;SDS011;35901;48.694;9.476;2022-09-03T06:19:23;3.07;;;2.07;;
50012;SDS011;35901;48.694;9.476;2022-09-03T06:21:49;2.73;;;2.17;;
50012;SDS011;35901;48.694;9.476;2022-09-03T06:24:18;2.10;;;2.00;;
50012;SDS011;35901;48.694;9.476;2022-09-03T06:26:48;1.97;;;1.87;;
50012;SDS011;35901;48.694;9.476;2022-09-03T06:29:15;2.10;;;1.90;;
50012;SDS011;35901;48.694;9.476;2022-09-03T06:31:43;2.00;;;1.90;;
50012;SDS011;35901;48.694;9.476;2022-09-03T06:34:08;4.23;;;2.10;;
50012;SDS011;35901;48.694;9.476;2022-09-03T06:36:34;2.27;;;2.07;;
50012;SDS011;35901;48.694;9.476;2022-09-03T06:39:00;1.90;;;1.80;;
50012;SDS011;35901;48.694;9.476;2022-09-03T06:41:26;2.03;;;1.90;;
50012;SDS011;35901;48.694;9.476;2022-09-03T06:43:56;1.93;;;1.83;;
50012;SDS011;35901;48.694;9.476;2022-09-03T06:46:26;2.57;;;2.20;;
50012;SDS011;35901;48.694;9.476;2022-09-03T06:48:52;2.50;;;2.20;;
50012;SDS011;35901;48.694;9.476;2022-09-03T06:51:22;2.37;;;2.07;;
50012;SDS011;35901;48.694;9.476;2022-09-03T06:53:54;2.50;;;2.30;;
50012;SDS011;35901;48.694;9.476;2022-09-03T06:56:30;2.10;;;2.00;;
50012;SDS011;35901;48.694;9.476;2022-09-03T06:58:57;2.70;;;2.50;;
50012;SDS011;35901;48.694;9.476;2022-09-03T07:01:25;2.50;;;2.30;;
50012;SDS011;35901;48.694;9.476;2022-09-03T07:03:55;2.53;;;2.33;;
50012;SDS011;35901;48.694;9.476;2022-09-03T07:06:23;3.43;;;2.50;;
50012;SDS011;35901;48.694;9.476;2022-09-03T07:08:51;2.80;;;2.60;;
50012;SDS011;35901;48.694;9.476;2022-09-03T07:11:19;3.20;;;2.40;;
50012;SDS011;35901;48.694;9.476;2022-09-03T07:13:50;2.40;;;2.20;;
50012;SDS011;35901;48.694;9.476;2022-09-03T07:18:51;2.37;;;2.27;;
50012;SDS011;35901;48.694;9.476;2022-09-03T07:21:21;2.80;;;2.40;;
50012;SDS011;35901;48.694;9.476;2022-09-03T07:23:50;2.40;;;2.20;;
50012;SDS011;35901;48.694;9.476;2022-09-03T07:26:21;2.83;;;2.63;;
50012;SDS011;35901;48.694;9.476;2022-09-03T07:28:49;2.70;;;2.50;;
50012;SDS011;35901;48.694;9.476;2022-09-03T07:31:16;3.10;;;2.70;;
50012;SDS011;35901;48.694;9.476;2022-09-03T07:33:44;2.70;;;2.37;;
50012;SDS011;35901;48.694;9.476;2022-09-03T07:36:14;4.03;;;2.70;;
50012;SDS011;35901;48.694;9.476;2022-09-03T07:38:41;2.90;;;2.60;;
50012;SDS011;35901;48.694;9.476;2022-09-03T07:41:11;3.30;;;3.00;;
50012;SDS011;35901;48.694;9.476;2022-09-03T07:43:42;2.63;;;2.33;;
50012;SDS011;35901;48.694;9.476;2022-09-03T07:46:15;4.43;;;2.63;;
50012;SDS011;35901;48.694;9.476;2022-09-03T07:48:47;2.67;;;2.47;;
50012;SDS011;35901;48.694;9.476;2022-09-03T07:51:15;2.73;;;2.50;;
50012;SDS011;35901;48.694;9.476;2022-09-03T07:53:42;3.03;;;2.30;;
50012;SDS011;35901;48.694;9.476;2022-09-03T07:56:11;2.57;;;2.37;;
50012;SDS011;35901;48.694;9.476;2022-09-03T07:58:37;3.77;;;2.80;;
50012;SDS011;35901;48.694;9.476;2022-09-03T08:01:06;2.40;;;2.30;;
50012;SDS011;35901;48.694;9.476;2022-09-03T08:03:33;3.20;;;2.83;;
50012;SDS011;35901;48.694;9.476;2022-09-03T08:06:00;3.07;;;2.70;;
50012;SDS011;35901;48.694;9.476;2022-09-03T08:08:27;4.77;;;2.73;;
50012;SDS011;35901;48.694;9.476;2022-09-03T08:10:53;3.97;;;2.80;;
50012;SDS011;35901;48.694;9.476;2022-09-03T08:13:19;2.93;;;2.40;;
50012;SDS011;35901;48.694;9.476;2022-09-03T08:15:54;3.80;;;2.70;;
50012;SDS011;35901;48.694;9.476;2022-09-03T08:18:20;2.87;;;2.63;;
50012;SDS011;35901;48.694;9.476;2022-09-03T08:20:47;2.80;;;2.33;;
50012;SDS011;35901;48.694;9.476;2022-09-03T08:23:13;2.90;;;2.60;;
50012;SDS011;35901;48.694;9.476;2022-09-03T08:25:39;2.70;;;2.50;;
50012;SDS011;35901;48.694;9.476;2022-09-03T08:28:05;2.73;;;2.50;;
50012;SDS011;35901;48.694;9.476;2022-09-03T08:30:30;3.33;;;2.80;;
50012;SDS011;35901;48.694;9.476;2022-09-03T08:32:56;2.70;;;2.50;;
50012;SDS011;35901;48.694;9.476;2022-09-03T08:35:26;3.00;;;2.60;;
50012;SDS011;35901;48.694;9.476;2022-09-03T08:37:53;2.80;;;2.60;;
50012;SDS011;35901;48.694;9.476;2022-09-03T08:40:18;3.93;;;2.53;;
50012;SDS011;35901;48.694;9.476;2022-09-03T08:42:57;2.83;;;2.63;;
50012;SDS011;35901;48.694;9.476;2022-09-03T08:45:30;2.70;;;2.50;;
50012;SDS011;35901;48.694;9.476;2022-09-03T08:48:00;2.90;;;2.70;;
50012;SDS011;35901;48.694;9.476;2022-09-03T08:50:41;2.50;;;2.27;;
50012;SDS011;35901;48.694;9.476;2022-09-03T08:55:52;3.37;;;2.77;;
50012;SDS011;35901;48.694;9.476;2022-09-03T08:58:29;6.07;;;2.63;;
50012;SDS011;35901;48.694;9.476;2022-09-03T09:09:10;2.60;;;2.40;;
50012;SDS011;35901;48.694;9.476;2022-09-03T09:14:39;2.27;;;2.00;;
50012;SDS011;35901;48.694;9.476;2022-09-03T09:22:54;2.30;;;2.10;;
50012;SDS011;35901;48.694;9.476;2022-09-03T09:25:25;2.17;;;2.07;;
50012;SDS011;35901;48.694;9.476;2022-09-03T09:27:56;2.67;;;2.10;;
50012;SDS011;35901;48.694;9.476;2022-09-03T09:30:23;2.30;;;2.10;;
50012;SDS011;35901;48.694;9.476;2022-09-03T09:32:49;2.93;;;2.30;;
50012;SDS011;35901;48.694;9.476;2022-09-03T09:35:15;2.47;;;2.27;;
50012;SDS011;35901;48.694;9.476;2022-09-03T09:38:00;2.50;;;2.27;;
50012;SDS011;35901;48.694;9.476;2022-09-03T09:40:28;2.67;;;2.17;;
50012;SDS011;35901;48.694;9.476;2022-09-03T09:43:15;2.30;;;2.10;;
50012;SDS011;35901;48.694;9.476;2022-09-03T09:46:11;2.40;;;2.20;;
50012;SDS011;35901;48.694;9.476;2022-09-03T09:48:53;2.50;;;2.30;;
50012;SDS011;35901;48.694;9.476;2022-09-03T09:51:22;2.40;;;2.20;;
50012;SDS011;35901;48.694;9.476;2022-09-03T09:56:34;2.23;;;2.10;;
50012;SDS011;35901;48.694;9.476;2022-09-03T09:59:10;3.10;;;2.57;;
50012;SDS011;35901;48.694;9.476;2022-09-03T10:01:37;2.00;;;1.90;;
50012;SDS011;35901;48.694;9.476;2022-09-03T10:04:08;2.10;;;1.90;;
50012;SDS011;35901;48.694;9.476;2022-09-03T10:06:53;3.57;;;2.30;;
50012;SDS011;35901;48.694;9.476;2022-09-03T10:09:23;2.00;;;1.90;;
50012;SDS011;35901;48.694;9.476;2022-09-03T10:21:40;2.07;;;1.97;;
50012;SDS011;35901;48.694;9.476;2022-09-03T10:25:06;2.33;;;2.03;;
50012;SDS011;35901;48.694;9.476;2022-09-03T10:27:24;2.60;;;1.80;;
50012;SDS011;35901;48.694;9.476;2022-09-03T10:29:49;4.03;;;2.10;;
50012;SDS011;35901;48.694;9.476;2022-09-03T10:32:28;2.00;;;1.90;;
50012;SDS011;35901;48.694;9.476;2022-09-03T10:35:05;2.80;;;2.10;;
50012;SDS011;35901;48.694;9.476;2022-09-03T10:40:43;2.47;;;1.97;;
50012;SDS011;35901;48.694;9.476;2022-09-03T10:46:09;2.03;;;1.93;;
50012;SDS011;35901;48.694;9.476;2022-09-03T10:51:28;2.03;;;1.93;;
50012;SDS011;35901;48.694;9.476;2022-09-03T10:59:58;2.03;;;1.93;;
50012;SDS011;35901;48.694;9.476;2022-09-03T11:02:39;2.17;;;2.07;;
50012;SDS011;35901;48.694;9.476;2022-09-03T11:05:33;3.10;;;2.10;;
50012;SDS011;35901;48.694;9.476;2022-09-03T11:08:15;2.73;;;2.30;;
50012;SDS011;35901;48.694;9.476;2022-09-03T11:10:48;2.63;;;2.20;;
50012;SDS011;35901;48.694;9.476;2022-09-03T11:13:23;3.93;;;2.30;;
50012;SDS011;35901;48.694;9.476;2022-09-03T11:15:59;2.50;;;2.30;;
50012;SDS011;35901;48.694;9.476;2022-09-03T11:18:31;2.30;;;2.20;;
50012;SDS011;35901;48.694;9.476;2022-09-03T11:21:07;2.20;;;2.03;;
50012;SDS011;35901;48.694;9.476;2022-09-03T11:23:39;2.40;;;2.30;;
50012;SDS011;35901;48.694;9.476;2022-09-03T11:26:09;3.20;;;2.10;;
50012;SDS011;35901;48.694;9.476;2022-09-03T11:28:42;2.33;;;2.20;;
50012;SDS011;35901;48.694;9.476;2022-09-03T11:40:13;2.20;;;2.10;;
50012;SDS011;35901;48.694;9.476;2022-09-03T11:42:46;2.60;;;2.40;;
50012;SDS011;35901;48.694;9.476;2022-09-03T11:47:44;2.57;;;2.37;;
50012;SDS011;35901;48.694;9.476;2022-09-03T11:52:47;2.80;;;2.60;;
50012;SDS011;35901;48.694;9.476;2022-09-03T11:58:30;2.20;;;2.10;;
50012;SDS011;35901;48.694;9.476;2022-09-03T12:01:07;2.70;;;2.10;;
50012;SDS011;35901;48.694;9.476;2022-09-03T12:09:02;5.40;;;5.00;;
50012;SDS011;35901;48.694;9.476;2022-09-03T12:11:51;3.30;;;3.00;;
50012;SDS011;35901;48.694;9.476;2022-09-03T12:14:29;2.73;;;2.53;;
50012;SDS011;35901;48.694;9.476;2022-09-03T12:22:18;3.10;;;2.50;;
50012;SDS011;35901;48.694;9.476;2022-09-03T12:24:45;2.80;;;2.60;;
50012;SDS011;35901;48.694;9.476;2022-09-03T12:27:16;3.27;;;3.03;;
50012;SDS011;35901;48.694;9.476;2022-09-03T12:29:57;3.40;;;2.83;;
50012;SDS011;35901;48.694;9.476;2022-09-03T12:32:26;3.67;;;2.30;;
50012;SDS011;35901;48.694;9.476;2022-09-03T12:34:54;3.43;;;2.30;;
50012;SDS011;35901;48.694;9.476;2022-09-03T12:37:21;4.33;;;2.20;;
50012;SDS011;35901;48.694;9.476;2022-09-03T12:39:52;3.47;;;2.30;;
50012;SDS011;35901;48.694;9.476;2022-09-03T12:42:26;2.90;;;2.70;;
50012;SDS011;35901;48.694;9.476;2022-09-03T12:45:03;2.67;;;2.40;;
50012;SDS011;35901;48.694;9.476;2022-09-03T12:47:37;3.47;;;2.00;;
50012;SDS011;35901;48.694;9.476;2022-09-03T12:50:05;2.83;;;2.00;;
50012;SDS011;35901;48.694;9.476;2022-09-03T12:55:32;6.43;;;2.27;;
50012;SDS011;35901;48.694;9.476;2022-09-03T12:58:03;2.63;;;1.90;;
50012;SDS011;35901;48.694;9.476;2022-09-03T13:00:31;2.67;;;1.70;;
50012;SDS011;35901;48.694;9.476;2022-09-03T13:05:34;2.03;;;1.47;;
50012;SDS011;35901;48.694;9.476;2022-09-03T13:08:07;1.83;;;1.63;;
50012;SDS011;35901;48.694;9.476;2022-09-03T13:10:40;2.77;;;1.50;;
50012;SDS011;35901;48.694;9.476;2022-09-03T13:21:28;4.07;;;1.77;;
50012;SDS011;35901;48.694;9.476;2022-09-03T13:26:59;2.97;;;1.47;;
50012;SDS011;35901;48.694;9.476;2022-09-03T13:34:56;2.30;;;1.60;;
50012;SDS011;35901;48.694;9.476;2022-09-03T13:37:27;3.10;;;1.50;;
50012;SDS011;35901;48.694;9.476;2022-09-03T13:42:52;1.77;;;1.67;;
50012;SDS011;35901;48.694;9.476;2022-09-03T13:45:36;1.60;;;1.50;;
50012;SDS011;35901;48.694;9.476;2022-09-03T13:48:16;1.63;;;1.50;;
50012;SDS011;35901;48.694;9.476;2022-09-03T13:51:12;2.97;;;1.70;;
50012;SDS011;35901;48.694;9.476;2022-09-03T13:54:05;1.20;;;1.10;;
50012;SDS011;35901;48.694;9.476;2022-09-03T13:56:49;4.63;;;1.40;;
50012;SDS011;35901;48.694;9.476;2022-09-03T13:59:43;1.40;;;1.30;;
50012;SDS011;35901;48.694;9.476;2022-09-03T14:02:22;1.30;;;1.23;;
50012;SDS011;35901;48.694;9.476;2022-09-03T14:05:03;1.23;;;1.10;;
50012;SDS011;35901;48.694;9.476;2022-09-03T14:12:43;1.23;;;1.20;;
50012;SDS011;35901;48.694;9.476;2022-09-03T14:20:34;1.27;;;1.10;;
50012;SDS011;35901;48.694;9.476;2022-09-03T14:26:14;1.00;;;1.00;;
50012;SDS011;35901;48.694;9.476;2022-09-03T14:28:47;2.90;;;1.20;;
50012;SDS011;35901;48.694;9.476;2022-09-03T14:31:46;1.00;;;1.00;;
50012;SDS011;35901;48.694;9.476;2022-09-03T14:51:03;2.77;;;1.10;;
50012;SDS011;35901;48.694;9.476;2022-09-03T14:59:39;2.60;;;1.00;;
50012;SDS011;35901;48.694;9.476;2022-09-03T15:05:08;1.03;;;0.90;;
50012;SDS011;35901;48.694;9.476;2022-09-03T15:10:46;1.23;;;0.70;;
50012;SDS011;35901;48.694;9.476;2022-09-03T15:13:26;1.00;;;1.00;;
50012;SDS011;35901;48.694;9.476;2022-09-03T15:24:42;1.37;;;0.90;;
50012;SDS011;35901;48.694;9.476;2022-09-03T15:30:32;1.30;;;0.83;;
50012;SDS011;35901;48.694;9.476;2022-09-03T15:33:27;0.90;;;0.90;;
50012;SDS011;35901;48.694;9.476;2022-09-03T15:38:43;0.90;;;0.90;;
50012;SDS011;35901;48.694;9.476;2022-09-03T15:41:20;1.03;;;1.03;;
50012;SDS011;35901;48.694;9.476;2022-09-03T15:43:57;1.13;;;1.00;;
50012;SDS011;35901;48.694;9.476;2022-09-03T15:51:58;0.83;;;0.83;;
50012;SDS011;35901;48.694;9.476;2022-09-03T15:54:38;1.00;;;0.90;;
50012;SDS011;35901;48.694;9.476;2022-09-03T15:57:25;0.90;;;0.90;;
50012;SDS011;35901;48.694;9.476;2022-09-03T16:02:39;0.70;;;0.70;;
50012;SDS011;35901;48.694;9.476;2022-09-03T16:05:43;0.90;;;0.90;;
50012;SDS011;35901;48.694;9.476;2022-09-03T16:11:05;1.00;;;0.80;;
50012;SDS011;35901;48.694;9.476;2022-09-03T16:17:06;0.90;;;0.90;;
50012;SDS011;35901;48.694;9.476;2022-09-03T16:19:23;0.90;;;0.90;;
50012;SDS011;35901;48.694;9.476;2022-09-03T16:21:57;1.37;;;1.00;;
50012;SDS011;35901;48.694;9.476;2022-09-03T16:27:16;1.53;;;1.00;;
50012;SDS011;35901;48.694;9.476;2022-09-03T16:30:07;1.73;;;1.10;;
50012;SDS011;35901;48.694;9.476;2022-09-03T16:35:35;1.00;;;1.00;;
50012;SDS011;35901;48.694;9.476;2022-09-03T16:38:18;0.80;;;0.80;;
50012;SDS011;35901;48.694;9.476;2022-09-03T16:46:16;1.00;;;1.00;;
50012;SDS011;35901;48.694;9.476;2022-09-03T16:49:15;1.10;;;1.00;;
50012;SDS011;35901;48.694;9.476;2022-09-03T16:52:05;1.20;;;1.10;;
50012;SDS011;35901;48.694;9.476;2022-09-03T17:12:37;3.10;;;1.47;;
50012;SDS011;35901;48.694;9.476;2022-09-03T17:15:48;1.23;;;1.20;;
50012;SDS011;35901;48.694;9.476;2022-09-03T17:18:21;1.80;;;1.30;;
50012;SDS011;35901;48.694;9.476;2022-09-03T17:21:13;1.10;;;1.10;;
50012;SDS011;35901;48.694;9.476;2022-09-03T17:32:46;1.50;;;1.33;;
50012;SDS011;35901;48.694;9.476;2022-09-03T17:44:13;1.50;;;1.40;;
50012;SDS011;35901;48.694;9.476;2022-09-03T17:49:00;1.83;;;1.73;;
50012;SDS011;35901;48.694;9.476;2022-09-03T18:02:31;1.83;;;1.70;;
50012;SDS011;35901;48.694;9.476;2022-09-03T18:07:59;2.23;;;1.80;;
50012;SDS011;35901;48.694;9.476;2022-09-03T18:13:13;1.67;;;1.47;;
50012;SDS011;35901;48.694;9.476;2022-09-03T18:15:50;1.67;;;1.50;;
50012;SDS011;35901;48.694;9.476;2022-09-03T18:18:26;1.60;;;1.50;;
50012;SDS011;35901;48.694;9.476;2022-09-03T18:20:55;2.60;;;1.50;;
50012;SDS011;35901;48.694;9.476;2022-09-03T18:26:35;2.10;;;1.90;;
50012;SDS011;35901;48.694;9.476;2022-09-03T18:29:42;3.03;;;2.00;;
50012;SDS011;35901;48.694;9.476;2022-09-03T18:32:31;3.17;;;1.97;;
50012;SDS011;35901;48.694;9.476;2022-09-03T18:35:16;3.60;;;1.90;;
50012;SDS011;35901;48.694;9.476;2022-09-03T18:38:01;1.93;;;1.83;;
50012;SDS011;35901;48.694;9.476;2022-09-03T18:40:51;2.83;;;1.87;;
50012;SDS011;35901;48.694;9.476;2022-09-03T18:43:58;2.17;;;2.07;;
50012;SDS011;35901;48.694;9.476;2022-09-03T18:47:13;4.17;;;2.37;;
50012;SDS011;35901;48.694;9.476;2022-09-03T18:56:36;2.73;;;2.50;;
50012;SDS011;35901;48.694;9.476;2022-09-03T19:05:42;2.40;;;2.20;;
50012;SDS011;35901;48.694;9.476;2022-09-03T19:08:36;2.50;;;2.30;;
50012;SDS011;35901;48.694;9.476;2022-09-03T19:20:29;3.40;;;2.57;;
50012;SDS011;35901;48.694;9.476;2022-09-03T19:23:14;3.57;;;2.63;;
50012;SDS011;35901;48.694;9.476;2022-09-03T19:26:02;3.37;;;2.70;;
50012;SDS011;35901;48.694;9.476;2022-09-03T19:29:02;3.07;;;2.77;;
50012;SDS011;35901;48.694;9.476;2022-09-03T19:32:02;3.40;;;2.80;;
50012;SDS011;35901;48.694;9.476;2022-09-03T19:43:38;2.90;;;2.70;;
50012;SDS011;35901;48.694;9.476;2022-09-03T19:52:54;3.93;;;3.10;;
50012;SDS011;35901;48.694;9.476;2022-09-03T19:55:52;3.80;;;3.40;;
50012;SDS011;35901;48.694;9.476;2022-09-03T19:58:39;3.83;;;3.23;;
50012;SDS011;35901;48.694;9.476;2022-09-03T20:01:33;4.63;;;3.80;;
50012;SDS011;35901;48.694;9.476;2022-09-03T20:04:20;3.50;;;3.20;;
50012;SDS011;35901;48.694;9.476;2022-09-03T20:07:12;4.50;;;4.10;;
50012;SDS011;35901;48.694;9.476;2022-09-03T20:09:57;6.10;;;4.27;;
50012;SDS011;35901;48.694;9.476;2022-09-03T20:12:46;6.00;;;5.33;;
50012;SDS011;35901;48.694;9.476;2022-09-03T20:15:20;4.73;;;4.30;;
50012;SDS011;35901;48.694;9.476;2022-09-03T20:26:12;7.63;;;6.90;;
50012;SDS011;35901;48.694;9.476;2022-09-03T20:29:10;7.50;;;6.80;;
50012;SDS011;35901;48.694;9.476;2022-09-03T20:31:42;7.50;;;6.80;;
50012;SDS011;35901;48.694;9.476;2022-09-03T20:45:16;6.80;;;6.20;;
50012;SDS011;35901;48.694;9.476;2022-09-03T20:50:53;7.43;;;6.43;;
50012;SDS011;35901;48.694;9.476;2022-09-03T21:04:50;4.53;;;4.13;;
50012;SDS011;35901;48.694;9.476;2022-09-03T21:15:13;3.20;;;2.87;;
50012;SDS011;35901;48.694;9.476;2022-09-03T21:17:51;3.43;;;3.10;;
50012;SDS011;35901;48.694;9.476;2022-09-03T21:23:24;3.10;;;2.80;;
50012;SDS011;35901;48.694;9.476;2022-09-03T21:30:58;3.40;;;3.10;;
50012;SDS011;35901;48.694;9.476;2022-09-03T21:33:34;5.00;;;3.50;;
50012;SDS011;35901;48.694;9.476;2022-09-03T21:36:36;4.10;;;3.00;;
50012;SDS011;35901;48.694;9.476;2022-09-03T21:39:00;4.40;;;3.23;;
50012;SDS011;35901;48.694;9.476;2022-09-03T21:41:55;4.87;;;4.43;;
50012;SDS011;35901;48.694;9.476;2022-09-03T21:47:13;5.50;;;5.00;;